Time;durP1;ratioP1;P1;durP2;ratioP2;P2;SDS_P1;SDS_P2;PMS_P1;PMS_P2;Temp;Humidity;BMP_temperature;BMP_pressure;BME280_temperature;BME280_humidity;BME280_pressure;Samples;Min_cycle;Max_cycle;Signal;HPM_P1;HPM_P2
2022/04/07 00:00:21;;;;;;;4.78;4.32;;;10.90;84.70;;;;;;5090148;28;20119;-69
2022/04/07 00:02:47;;;;;;;3.50;3.20;;;10.90;84.70;;;;;;5081646;28;20031;-67
2022/04/07 00:05:13;;;;;;;3.35;2.60;;;10.80;84.80;;;;;;5090308;28;20028;-68
2022/04/07 00:07:38;;;;;;;3.20;2.90;;;10.90;85.00;;;;;;5081353;28;20024;-69
2022/04/07 00:10:04;;;;;;;6.97;4.68;;;10.90;85.10;;;;;;5090183;28;20050;-68
2022/04/07 00:12:33;;;;;;;4.70;3.30;;;10.80;85.20;;;;;;5076386;28;20436;-68
2022/04/07 00:15:00;;;;;;;5.43;4.05;;;10.80;85.50;;;;;;5088416;28;20478;-69
2022/04/07 00:17:29;;;;;;;4.10;3.03;;;10.80;85.70;;;;;;5082743;28;20412;-69
2022/04/07 00:19:55;;;;;;;4.05;3.65;;;10.70;85.80;;;;;;5088170;28;20432;-68
2022/04/07 00:22:20;;;;;;;5.20;3.83;;;10.80;85.80;;;;;;5082071;28;20024;-69
2022/04/07 00:24:46;;;;;;;4.82;4.22;;;10.80;85.80;;;;;;5090070;28;20030;-69
2022/04/07 00:27:11;;;;;;;4.60;3.30;;;10.80;85.80;;;;;;5086252;28;20016;-69
2022/04/07 00:29:37;;;;;;;5.63;3.85;;;10.80;85.90;;;;;;5093600;28;20073;-69
2022/04/07 00:32:05;;;;;;;4.38;3.00;;;10.80;85.90;;;;;;5090645;28;20028;-70
2022/04/07 00:34:31;;;;;;;5.82;3.60;;;10.70;86.00;;;;;;5094198;28;20028;-69
2022/04/07 00:36:57;;;;;;;5.95;4.60;;;10.70;86.00;;;;;;5087768;28;20094;-70
2022/04/07 00:39:23;;;;;;;4.57;3.75;;;10.70;86.10;;;;;;5093273;28;20596;-70
2022/04/07 00:41:48;;;;;;;4.57;3.88;;;10.70;86.10;;;;;;5091378;28;20025;-69
2022/04/07 00:44:14;;;;;;;4.43;3.67;;;10.70;86.10;;;;;;5092535;28;20012;-69
2022/04/07 00:46:40;;;;;;;4.72;3.40;;;10.70;86.10;;;;;;5087175;28;20039;-68
2022/04/07 00:49:07;;;;;;;4.80;3.58;;;10.70;86.20;;;;;;5089909;28;20016;-68
2022/04/07 00:51:34;;;;;;;4.75;3.97;;;10.70;86.10;;;;;;5087755;28;20024;-69
2022/04/07 00:54:00;;;;;;;5.68;3.72;;;10.70;86.00;;;;;;5084586;28;20024;-70
2022/04/07 00:56:26;;;;;;;5.20;3.25;;;10.70;86.00;;;;;;5089904;28;20047;-69
2022/04/07 00:58:53;;;;;;;5.43;3.53;;;10.70;86.00;;;;;;5080641;28;20024;-68
2022/04/07 01:01:22;;;;;;;4.32;3.00;;;10.60;85.90;;;;;;5091632;28;20360;-69
2022/04/07 01:03:49;;;;;;;5.45;3.45;;;10.70;85.80;;;;;;5084773;28;20027;-69
2022/04/07 01:06:15;;;;;;;3.83;2.70;;;10.70;85.60;;;;;;5092762;28;20027;-69
2022/04/07 01:08:41;;;;;;;4.80;2.88;;;10.70;85.60;;;;;;5085890;28;20119;-69
2022/04/07 01:11:07;;;;;;;5.03;3.13;;;10.70;85.50;;;;;;5092193;28;20039;-69
2022/04/07 01:13:50;;;;;;;6.35;3.40;;;10.70;85.40;;;;;;5092398;28;20020;-69
2022/04/07 01:16:17;;;;;;;3.92;2.50;;;10.70;85.30;;;;;;5084720;28;20027;-68
2022/04/07 01:18:46;;;;;;;4.97;2.75;;;10.70;85.10;;;;;;5087002;28;20051;-69
2022/04/07 01:21:17;;;;;;;4.20;2.20;;;10.70;84.90;;;;;;5092332;28;20074;-69
2022/04/07 01:23:54;;;;;;;4.10;2.42;;;10.60;84.80;;;;;;5091864;28;20079;-69
2022/04/07 01:26:21;;;;;;;4.30;2.10;;;10.60;84.70;;;;;;5085382;28;20501;-70
2022/04/07 01:28:48;;;;;;;5.68;2.35;;;10.60;84.80;;;;;;5089856;28;20270;-70
2022/04/07 01:31:13;;;;;;;5.40;2.53;;;10.60;84.90;;;;;;5081849;28;20055;-70
2022/04/07 01:33:39;;;;;;;7.82;2.67;;;10.50;85.20;;;;;;5084751;28;20660;-68
2022/04/07 01:36:05;;;;;;;6.55;2.80;;;10.40;85.60;;;;;;5086336;28;20032;-70
2022/04/07 01:38:30;;;;;;;3.72;2.00;;;10.40;86.10;;;;;;5087911;28;20255;-71
2022/04/07 01:40:56;;;;;;;10.15;3.10;;;10.30;86.30;;;;;;5107617;28;20366;-68
2022/04/07 01:43:22;;;;;;;5.35;2.28;;;10.30;86.50;;;;;;5107901;28;19992;-70
2022/04/07 01:45:48;;;;;;;4.85;2.13;;;10.20;86.90;;;;;;5109838;28;20024;-72
2022/04/07 01:48:16;;;;;;;7.95;2.50;;;10.20;87.20;;;;;;5095552;28;20031;-71
2022/04/07 01:50:43;;;;;;;5.28;2.22;;;10.20;87.40;;;;;;5087369;28;20032;-69
2022/04/07 01:53:08;;;;;;;3.72;2.10;;;10.10;88.10;;;;;;5091013;28;20031;-70
2022/04/07 01:55:35;;;;;;;5.60;2.53;;;10.20;87.60;;;;;;5086965;28;20368;-71
2022/04/07 01:58:00;;;;;;;6.47;2.30;;;10.20;87.60;;;;;;5087653;28;20028;-69
2022/04/07 02:00:26;;;;;;;4.97;2.22;;;10.10;87.60;;;;;;5085770;28;20066;-69
2022/04/07 02:02:51;;;;;;;4.28;2.33;;;10.10;87.60;;;;;;5106112;28;20034;-68
2022/04/07 02:05:17;;;;;;;7.85;2.75;;;10.20;87.60;;;;;;5097008;28;20088;-71
2022/04/07 02:07:43;;;;;;;6.82;2.95;;;10.10;87.60;;;;;;5090989;28;20435;-70
2022/04/07 02:10:11;;;;;;;6.35;2.63;;;10.10;87.70;;;;;;5084921;28;20020;-70
2022/04/07 02:12:39;;;;;;;6.10;2.67;;;10.10;87.70;;;;;;5090312;28;20390;-69
2022/04/07 02:15:06;;;;;;;6.10;2.97;;;10.20;87.70;;;;;;5087950;28;20052;-70
2022/04/07 02:17:32;;;;;;;7.55;3.05;;;10.20;87.60;;;;;;5080022;28;20035;-70
2022/04/07 02:19:59;;;;;;;4.95;3.00;;;10.10;87.70;;;;;;5086997;28;20031;-70
2022/04/07 02:22:28;;;;;;;4.25;2.28;;;10.10;87.70;;;;;;5091851;28;20474;-69
2022/04/07 02:24:54;;;;;;;6.47;2.70;;;10.10;87.70;;;;;;5087694;28;20075;-70
2022/04/07 02:27:20;;;;;;;6.15;2.35;;;10.10;87.80;;;;;;5085463;28;20108;-70
2022/04/07 02:29:45;;;;;;;9.05;3.53;;;10.10;87.90;;;;;;5079369;28;20099;-71
2022/04/07 02:32:11;;;;;;;4.55;2.50;;;10.10;88.00;;;;;;5089973;28;20379;-70
2022/04/07 02:34:38;;;;;;;4.88;2.58;;;10.10;88.10;;;;;;5090198;28;20020;-68
2022/04/07 02:37:04;;;;;;;5.88;2.65;;;10.10;88.20;;;;;;5091217;28;20020;-68
2022/04/07 02:39:29;;;;;;;6.22;2.60;;;10.10;88.30;;;;;;5088186;28;20032;-68
2022/04/07 02:41:55;;;;;;;5.60;2.90;;;10.10;88.40;;;;;;5091563;28;20024;-70
2022/04/07 02:44:21;;;;;;;5.20;2.70;;;10.10;88.40;;;;;;5088674;28;20050;-69
2022/04/07 02:46:46;;;;;;;5.90;2.90;;;10.10;88.50;;;;;;5089505;28;20024;-70
2022/04/07 02:49:12;;;;;;;5.28;2.72;;;10.10;88.40;;;;;;5089116;28;20103;-69
2022/04/07 02:51:38;;;;;;;6.22;2.80;;;10.10;88.50;;;;;;5090003;28;20028;-70
2022/04/07 02:54:04;;;;;;;4.93;2.90;;;10.10;88.60;;;;;;5085049;28;20736;-71
2022/04/07 02:56:29;;;;;;;5.95;2.83;;;10.10;88.60;;;;;;5080159;28;20360;-72
2022/04/07 02:58:56;;;;;;;8.18;2.90;;;10.00;88.70;;;;;;5088900;28;20020;-71
2022/04/07 03:01:21;;;;;;;6.65;2.78;;;10.00;88.70;;;;;;5081495;28;20482;-72
2022/04/07 03:03:48;;;;;;;7.30;3.17;;;10.00;88.70;;;;;;5089869;28;20039;-72
2022/04/07 03:06:14;;;;;;;11.35;3.50;;;10.00;88.70;;;;;;5082359;28;20016;-71
2022/04/07 03:08:40;;;;;;;6.03;2.83;;;10.00;88.60;;;;;;5090599;28;20035;-72
2022/04/07 03:11:07;;;;;;;9.35;3.35;;;10.00;88.60;;;;;;5083570;28;20032;-72
2022/04/07 03:13:33;;;;;;;9.93;3.88;;;10.10;88.60;;;;;;5090750;28;20039;-71
2022/04/07 03:15:59;;;;;;;7.78;3.55;;;10.10;88.40;;;;;;5084402;28;20160;-69
2022/04/07 03:18:24;;;;;;;10.57;3.45;;;10.10;88.20;;;;;;5090396;28;20146;-69
2022/04/07 03:20:50;;;;;;;10.05;3.20;;;10.10;88.00;;;;;;5083595;28;20039;-69
2022/04/07 03:23:16;;;;;;;11.52;3.60;;;10.20;87.90;;;;;;5091120;28;20026;-70
2022/04/07 03:25:41;;;;;;;6.70;3.28;;;10.20;87.60;;;;;;5084528;28;20492;-71
2022/04/07 03:28:07;;;;;;;7.05;2.85;;;10.20;87.30;;;;;;5090256;28;20077;-70
2022/04/07 03:30:33;;;;;;;8.02;2.95;;;10.20;87.10;;;;;;5085990;28;20027;-70
2022/04/07 03:32:58;;;;;;;6.22;3.03;;;10.20;86.90;;;;;;5090173;28;20458;-70
2022/04/07 03:35:24;;;;;;;7.60;3.10;;;10.30;87.50;;;;;;5085670;28;20028;-70
2022/04/07 03:37:50;;;;;;;9.70;2.80;;;10.30;86.70;;;;;;5090530;28;20024;-70
2022/04/07 03:40:16;;;;;;;9.55;2.80;;;10.30;86.50;;;;;;5085864;28;20466;-70
2022/04/07 03:42:42;;;;;;;8.60;3.22;;;10.30;86.30;;;;;;5089567;28;20028;-71
2022/04/07 03:45:08;;;;;;;9.23;2.90;;;10.30;86.20;;;;;;5085620;28;20066;-71
2022/04/07 03:47:33;;;;;;;8.20;2.60;;;10.30;86.20;;;;;;5084269;28;20025;-70
2022/04/07 03:49:59;;;;;;;6.07;2.67;;;10.30;86.00;;;;;;5079007;28;20036;-71
2022/04/07 03:52:25;;;;;;;8.18;2.90;;;10.30;86.00;;;;;;5088280;28;20474;-71
2022/04/07 03:54:50;;;;;;;9.65;2.50;;;10.30;86.00;;;;;;5083526;28;20397;-71
2022/04/07 03:57:16;;;;;;;9.30;2.92;;;10.30;86.00;;;;;;5081635;28;20095;-72
2022/04/07 03:59:42;;;;;;;11.35;3.78;;;10.30;86.10;;;;;;5087759;28;20092;-72
2022/04/07 04:02:10;;;;;;;8.48;3.08;;;10.30;86.30;;;;;;5081021;28;20021;-72
2022/04/07 04:04:36;;;;;;;6.10;2.65;;;10.20;86.50;;;;;;5087695;28;20024;-71
2022/04/07 04:07:02;;;;;;;7.28;2.63;;;10.20;86.70;;;;;;5080388;28;20390;-72
2022/04/07 04:09:28;;;;;;;7.15;2.50;;;10.20;86.80;;;;;;5087351;28;20021;-72
2022/04/07 04:11:53;;;;;;;7.53;2.20;;;10.20;87.00;;;;;;5080353;28;20029;-72
2022/04/07 04:14:19;;;;;;;10.38;2.97;;;10.20;87.70;;;;;;5089739;28;20028;-72
2022/04/07 04:16:45;;;;;;;7.05;3.10;;;10.20;87.00;;;;;;5078424;28;20051;-72
2022/04/07 04:19:11;;;;;;;13.48;3.20;;;10.20;87.00;;;;;;5089163;28;20479;-71
2022/04/07 04:21:36;;;;;;;8.68;2.80;;;10.20;87.00;;;;;;5083246;28;20032;-68
2022/04/07 04:24:03;;;;;;;7.90;2.80;;;10.20;86.80;;;;;;5088363;28;20367;-68
2022/04/07 04:26:28;;;;;;;9.07;3.58;;;10.20;86.70;;;;;;5080630;28;20023;-68
2022/04/07 04:28:54;;;;;;;5.28;2.30;;;10.20;86.70;;;;;;5089423;28;20469;-71
2022/04/07 04:31:24;;;;;;;9.63;2.75;;;10.30;86.60;;;;;;5077719;28;20036;-71
2022/04/07 04:33:56;;;;;;;9.98;2.78;;;10.20;86.50;;;;;;5080587;28;20025;-70
2022/04/07 04:36:21;;;;;;;7.93;2.60;;;10.20;86.40;;;;;;5078940;28;20032;-69
2022/04/07 04:38:48;;;;;;;8.50;2.88;;;10.30;86.20;;;;;;5089213;28;20042;-69
2022/04/07 04:41:14;;;;;;;9.70;2.67;;;10.30;86.00;;;;;;5086160;28;20428;-70
2022/04/07 04:43:39;;;;;;;9.15;3.13;;;10.30;85.70;;;;;;5089245;28;20026;-70
2022/04/07 04:46:05;;;;;;;9.15;2.80;;;10.30;85.30;;;;;;5081173;28;20483;-69
2022/04/07 04:48:31;;;;;;;6.82;2.80;;;10.30;85.30;;;;;;5089713;28;20032;-70
2022/04/07 04:50:56;;;;;;;9.35;3.08;;;10.30;84.80;;;;;;5087320;28;20039;-70
2022/04/07 04:53:22;;;;;;;8.45;2.80;;;10.30;84.80;;;;;;5088467;28;20058;-69
2022/04/07 04:55:48;;;;;;;6.13;2.35;;;10.30;84.70;;;;;;5080537;28;20063;-71
2022/04/07 04:58:14;;;;;;;7.78;2.40;;;10.30;84.30;;;;;;5082013;28;20048;-69
2022/04/07 05:00:43;;;;;;;7.15;2.75;;;10.30;84.10;;;;;;5086327;28;20104;-69
2022/04/07 05:03:09;;;;;;;8.35;2.63;;;10.40;83.90;;;;;;5087925;28;20446;-71
2022/04/07 05:05:34;;;;;;;10.95;2.97;;;10.40;83.70;;;;;;5086876;28;20106;-69
2022/04/07 05:08:00;;;;;;;9.05;3.53;;;10.40;83.30;;;;;;5080087;28;20016;-69
2022/04/07 05:10:26;;;;;;;8.48;2.78;;;10.40;83.20;;;;;;5088225;28;20028;-69
2022/04/07 05:12:52;;;;;;;9.05;3.15;;;10.40;82.80;;;;;;5085683;28;20036;-69
2022/04/07 05:15:17;;;;;;;11.18;2.95;;;10.40;82.80;;;;;;5098542;28;20024;-69
2022/04/07 05:17:50;;;;;;;5.95;2.38;;;10.40;82.70;;;;;;5089740;28;20040;-71
2022/04/07 05:20:16;;;;;;;6.30;2.38;;;10.40;82.70;;;;;;5097548;28;20012;-69
2022/04/07 05:22:42;;;;;;;7.82;2.20;;;10.40;82.70;;;;;;5087488;28;20379;-69
2022/04/07 05:25:09;;;;;;;5.43;2.20;;;10.40;82.70;;;;;;5090566;28;20016;-71
2022/04/07 05:27:36;;;;;;;6.97;2.30;;;10.40;82.60;;;;;;5090533;28;20031;-70
2022/04/07 05:30:15;;;;;;;6.05;2.13;;;10.40;82.40;;;;;;5087426;28;20031;-68
2022/04/07 05:32:41;;;;;;;5.93;1.98;;;10.40;82.30;;;;;;5089365;28;20433;-70
2022/04/07 05:35:09;;;;;;;5.43;2.17;;;10.50;82.40;;;;;;5087733;28;20029;-69
2022/04/07 05:37:35;;;;;;;3.20;1.90;;;10.50;82.40;;;;;;5086787;28;20119;-70
2022/04/07 05:40:00;;;;;;;3.58;1.80;;;10.50;82.50;;;;;;5087628;28;20423;-70
2022/04/07 05:42:26;;;;;;;5.90;2.15;;;10.50;82.70;;;;;;5099142;28;20016;-70
2022/04/07 05:44:51;;;;;;;5.78;2.20;;;10.50;83.50;;;;;;5088752;28;20494;-70
2022/04/07 05:47:17;;;;;;;3.20;1.70;;;10.50;83.00;;;;;;5088636;28;20099;-70
2022/04/07 05:49:42;;;;;;;4.25;1.75;;;10.50;83.20;;;;;;5086737;28;20099;-70
2022/04/07 05:52:08;;;;;;;3.35;1.73;;;10.50;83.30;;;;;;5097084;28;20048;-70
2022/04/07 05:54:34;;;;;;;4.10;2.10;;;10.50;83.50;;;;;;5092437;28;20036;-70
2022/04/07 05:57:00;;;;;;;3.28;1.60;;;10.50;83.70;;;;;;5077294;28;20028;-70
2022/04/07 05:59:25;;;;;;;2.67;1.50;;;10.40;83.80;;;;;;5092547;28;20513;-70
2022/04/07 06:01:51;;;;;;;3.47;1.98;;;10.40;84.00;;;;;;5084763;28;20078;-69
2022/04/07 06:04:17;;;;;;;3.88;1.70;;;10.40;84.20;;;;;;5082692;28;20028;-69
2022/04/07 06:06:43;;;;;;;2.60;1.60;;;10.40;84.30;;;;;;5086333;28;20017;-69
2022/04/07 06:09:09;;;;;;;3.97;1.63;;;10.40;84.60;;;;;;5083001;28;20028;-70
2022/04/07 06:11:34;;;;;;;4.18;2.13;;;10.40;84.80;;;;;;5086083;28;20043;-69
2022/04/07 06:14:00;;;;;;;2.50;1.60;;;10.40;85.10;;;;;;5085655;28;20032;-70
2022/04/07 06:16:26;;;;;;;5.70;1.98;;;10.30;85.40;;;;;;5085621;28;20503;-70
2022/04/07 06:18:52;;;;;;;3.78;1.88;;;10.30;85.70;;;;;;5085306;28;20063;-69
2022/04/07 06:21:18;;;;;;;2.83;1.70;;;10.30;86.00;;;;;;5087469;28;20206;-70
2022/04/07 06:23:44;;;;;;;2.20;1.40;;;10.30;86.30;;;;;;5085997;28;20057;-69
2022/04/07 06:26:10;;;;;;;3.17;1.60;;;10.20;86.40;;;;;;5092090;28;20016;-69
2022/04/07 06:28:36;;;;;;;3.58;1.83;;;10.30;86.60;;;;;;5089469;28;20097;-69
2022/04/07 06:31:01;;;;;;;4.55;1.88;;;10.30;86.60;;;;;;5079043;28;20050;-70
2022/04/07 06:33:27;;;;;;;3.53;2.13;;;10.20;86.80;;;;;;5086960;28;20031;-70
2022/04/07 06:35:52;;;;;;;3.15;2.03;;;10.20;86.90;;;;;;5085089;28;20034;-70
2022/04/07 06:38:18;;;;;;;3.67;1.90;;;10.20;87.10;;;;;;5089156;28;20020;-69
2022/04/07 06:40:44;;;;;;;3.22;1.80;;;10.20;87.20;;;;;;5090356;28;20024;-69
2022/04/07 06:43:10;;;;;;;6.32;2.78;;;10.20;87.40;;;;;;5089503;28;20032;-69
2022/04/07 06:45:36;;;;;;;4.40;2.40;;;10.20;87.60;;;;;;5088599;28;20024;-69
2022/04/07 06:48:02;;;;;;;4.45;2.22;;;10.20;87.80;;;;;;5095103;28;20012;-68
2022/04/07 06:50:28;;;;;;;5.07;2.40;;;10.10;88.00;;;;;;5097708;28;20574;-69
2022/04/07 06:52:55;;;;;;;5.05;2.35;;;10.10;88.10;;;;;;5093989;28;20398;-69
2022/04/07 06:55:20;;;;;;;3.58;1.90;;;10.10;88.10;;;;;;5086526;28;20024;-70
2022/04/07 06:58:00;;;;;;;5.10;2.10;;;10.10;88.20;;;;;;5089326;28;20032;-70
2022/04/07 07:00:35;;;;;;;3.20;1.75;;;10.20;88.30;;;;;;5075126;28;20045;-69
2022/04/07 07:03:02;;;;;;;1.35;0.80;;;10.20;87.90;;;;;;5082117;28;20505;-70
2022/04/07 07:05:30;;;;;;;2.05;0.77;;;9.70;85.00;;;;;;5091401;28;20016;-70
2022/04/07 07:07:56;;;;;;;1.52;0.60;;;9.30;83.70;;;;;;5079939;28;20417;-69
2022/04/07 07:10:24;;;;;;;1.30;0.60;;;8.80;83.20;;;;;;5082986;28;20020;-69
2022/04/07 07:12:51;;;;;;;0.50;0.50;;;8.20;82.90;;;;;;5080620;28;20478;-70
2022/04/07 07:15:17;;;;;;;1.27;0.60;;;7.90;83.70;;;;;;5083760;28;20032;-70
2022/04/07 07:17:43;;;;;;;1.30;0.85;;;7.70;84.50;;;;;;5093075;28;20397;-70
2022/04/07 07:20:10;;;;;;;2.33;0.77;;;7.50;84.70;;;;;;5090620;28;20027;-70
2022/04/07 07:22:40;;;;;;;1.27;0.80;;;7.40;84.90;;;;;;5082902;28;20028;-70
2022/04/07 07:25:06;;;;;;;0.77;0.63;;;7.40;85.00;;;;;;5080929;28;20024;-70
2022/04/07 07:27:43;;;;;;;2.58;0.98;;;7.40;85.30;;;;;;5089560;28;20027;-70
2022/04/07 07:30:10;;;;;;;1.38;0.80;;;7.40;85.30;;;;;;5084127;28;20063;-69
2022/04/07 07:32:40;;;;;;;1.35;0.90;;;7.40;85.30;;;;;;5084358;28;20029;-69
2022/04/07 07:35:07;;;;;;;1.30;0.70;;;7.40;85.30;;;;;;5083579;28;20191;-69
2022/04/07 07:37:34;;;;;;;1.80;0.90;;;7.40;85.40;;;;;;5076568;28;20106;-69
2022/04/07 07:40:08;;;;;;;2.42;0.88;;;7.40;85.50;;;;;;5088506;28;20107;-69
2022/04/07 07:42:36;;;;;;;2.40;0.93;;;7.40;85.50;;;;;;5076860;28;20024;-69
2022/04/07 07:45:02;;;;;;;2.47;1.10;;;7.40;85.40;;;;;;5081899;28;20545;-70
2022/04/07 07:47:27;;;;;;;2.03;0.90;;;7.40;85.50;;;;;;5080717;28;20127;-69
2022/04/07 07:49:53;;;;;;;2.38;1.27;;;7.40;85.50;;;;;;5081781;28;20103;-70
2022/04/07 07:52:18;;;;;;;2.58;0.95;;;7.40;85.50;;;;;;5092040;28;20024;-70
2022/04/07 07:54:44;;;;;;;2.95;1.05;;;7.40;85.60;;;;;;5079468;28;20039;-69
2022/04/07 07:57:09;;;;;;;2.38;0.90;;;7.50;85.60;;;;;;5086299;28;20016;-70
2022/04/07 07:59:35;;;;;;;2.85;1.00;;;7.40;85.70;;;;;;5081748;28;20040;-71
2022/04/07 08:02:00;;;;;;;3.08;1.20;;;7.50;85.70;;;;;;5082217;28;20128;-69
2022/04/07 08:04:26;;;;;;;3.08;1.42;;;7.40;85.70;;;;;;5089143;28;20027;-69
2022/04/07 08:06:51;;;;;;;3.25;1.23;;;7.50;85.80;;;;;;5085988;28;20024;-69
2022/04/07 08:09:17;;;;;;;5.03;1.20;;;7.40;86.00;;;;;;5085654;28;20027;-69
2022/04/07 08:11:43;;;;;;;2.22;1.10;;;7.40;86.10;;;;;;5079583;28;20473;-69
2022/04/07 08:14:08;;;;;;;2.75;1.15;;;7.40;86.10;;;;;;5090357;28;20030;-69
2022/04/07 08:16:35;;;;;;;1.80;0.90;;;7.40;86.20;;;;;;5086365;28;20111;-70
2022/04/07 08:19:00;;;;;;;2.97;0.90;;;7.40;86.30;;;;;;5094627;28;20020;-68
2022/04/07 08:21:26;;;;;;;1.67;1.15;;;7.50;86.40;;;;;;5090270;28;20027;-69
2022/04/07 08:23:52;;;;;;;2.33;1.00;;;7.50;86.30;;;;;;5098370;28;20413;-70
2022/04/07 08:26:17;;;;;;;1.15;0.80;;;7.60;86.20;;;;;;5090461;28;20475;-70
2022/04/07 08:28:43;;;;;;;1.88;1.10;;;7.60;86.10;;;;;;5096428;28;20041;-70
2022/04/07 08:31:08;;;;;;;1.85;1.00;;;7.60;86.10;;;;;;5086829;28;20027;-72
2022/04/07 08:33:34;;;;;;;1.85;1.02;;;7.70;86.10;;;;;;5084816;28;20081;-70
2022/04/07 08:36:00;;;;;;;1.70;0.90;;;7.80;86.10;;;;;;5088063;28;20028;-70
2022/04/07 08:38:25;;;;;;;1.02;0.80;;;7.80;86.10;;;;;;5080582;28;20483;-71
2022/04/07 08:40:51;;;;;;;1.98;1.08;;;8.00;86.10;;;;;;5088002;28;20386;-71
2022/04/07 08:43:20;;;;;;;4.25;1.13;;;8.20;86.00;;;;;;5081433;28;20039;-71
2022/04/07 08:45:46;;;;;;;1.55;0.80;;;8.30;85.70;;;;;;5096170;28;20031;-70
2022/04/07 08:48:12;;;;;;;2.08;0.90;;;8.40;85.60;;;;;;5095155;28;20028;-70
2022/04/07 08:50:42;;;;;;;2.17;1.10;;;8.60;85.40;;;;;;5098113;28;20043;-70
2022/04/07 08:53:09;;;;;;;1.48;1.20;;;8.60;85.30;;;;;;5088395;28;20111;-69
2022/04/07 08:55:35;;;;;;;1.80;1.00;;;8.70;85.30;;;;;;5090422;28;20066;-71
2022/04/07 08:58:04;;;;;;;3.38;1.27;;;8.90;85.10;;;;;;5079517;28;20666;-71
2022/04/07 09:00:30;;;;;;;2.72;1.40;;;9.10;85.10;;;;;;5100982;27;20043;-71
2022/04/07 09:02:56;;;;;;;3.05;1.30;;;9.20;85.00;;;;;;5088005;28;20024;-71
2022/04/07 09:05:25;;;;;;;3.65;1.70;;;9.40;84.80;;;;;;5096191;28;20486;-71
2022/04/07 09:07:52;;;;;;;8.45;1.30;;;9.50;84.40;;;;;;5086214;28;20024;-71
2022/04/07 09:10:19;;;;;;;3.35;1.30;;;9.70;84.30;;;;;;5084702;28;20085;-70
2022/04/07 09:12:45;;;;;;;1.75;1.20;;;9.80;84.00;;;;;;5086300;28;20027;-70
2022/04/07 09:15:13;;;;;;;3.33;1.80;;;9.90;83.80;;;;;;5094190;28;20044;-70
2022/04/07 09:17:55;;;;;;;1.95;1.17;;;10.00;83.60;;;;;;5088719;28;20028;-70
2022/04/07 09:20:21;;;;;;;1.90;1.05;;;10.20;83.50;;;;;;5087435;28;20119;-69
2022/04/07 09:22:58;;;;;;;2.40;1.40;;;10.30;83.10;;;;;;5093992;28;20348;-69
2022/04/07 09:25:24;;;;;;;2.38;1.30;;;10.30;82.90;;;;;;5091722;28;20063;-69
2022/04/07 09:27:50;;;;;;;3.33;1.30;;;10.40;82.80;;;;;;5092419;28;20431;-70
2022/04/07 09:30:16;;;;;;;2.58;1.17;;;10.40;82.80;;;;;;5090950;28;20107;-70
2022/04/07 09:32:43;;;;;;;4.85;1.30;;;10.50;82.70;;;;;;5078739;28;20028;-70
2022/04/07 09:35:09;;;;;;;4.03;1.30;;;10.50;82.60;;;;;;5092470;28;20012;-70
2022/04/07 09:37:34;;;;;;;2.88;1.30;;;10.50;82.40;;;;;;5077650;28;20541;-70
2022/04/07 09:40:16;;;;;;;4.15;1.52;;;10.50;82.20;;;;;;5088535;28;20091;-70
2022/04/07 09:42:42;;;;;;;4.97;1.30;;;10.60;82.00;;;;;;5089198;28;20016;-70
2022/04/07 09:45:12;;;;;;;4.50;1.42;;;10.60;81.80;;;;;;5094261;28;20027;-70
2022/04/07 09:47:49;;;;;;;2.53;1.20;;;10.70;81.70;;;;;;5089367;28;20020;-70
2022/04/07 09:50:29;;;;;;;4.20;1.30;;;10.80;81.50;;;;;;5097289;28;20124;-70
2022/04/07 09:53:05;;;;;;;3.65;1.42;;;10.80;81.40;;;;;;5089586;28;20506;-69
2022/04/07 09:55:40;;;;;;;4.78;1.40;;;10.90;81.40;;;;;;5089031;28;20020;-70
2022/04/07 09:58:07;;;;;;;3.70;1.42;;;11.00;80.50;;;;;;5085048;28;20021;-70
2022/04/07 10:00:33;;;;;;;3.35;1.35;;;11.00;79.30;;;;;;5081468;28;20021;-70
2022/04/07 10:02:59;;;;;;;4.28;1.27;;;11.00;78.60;;;;;;5085460;28;20485;-70
2022/04/07 10:05:25;;;;;;;3.88;1.33;;;11.10;79.00;;;;;;5090875;28;20146;-70
2022/04/07 10:07:51;;;;;;;5.00;1.33;;;11.20;78.80;;;;;;5088401;28;20024;-69
2022/04/07 10:10:18;;;;;;;2.75;1.20;;;11.30;78.40;;;;;;5085398;28;20537;-70
2022/04/07 10:12:48;;;;;;;4.18;1.38;;;11.50;78.20;;;;;;5091373;28;20039;-70
2022/04/07 10:15:14;;;;;;;4.68;1.55;;;11.50;77.30;;;;;;5083591;28;20497;-70
2022/04/07 10:17:41;;;;;;;3.65;1.27;;;11.50;76.00;;;;;;5080422;28;20024;-70
2022/04/07 10:20:09;;;;;;;4.63;1.48;;;11.50;75.50;;;;;;5104654;28;20541;-69
2022/04/07 10:23:12;;;;;;;3.55;1.20;;;11.50;75.00;;;;;;5085979;28;20394;-70
2022/04/07 10:25:43;;;;;;;6.95;1.42;;;11.70;74.80;;;;;;5081868;28;20058;-70
2022/04/07 10:28:10;;;;;;;4.75;1.17;;;11.80;74.60;;;;;;5087958;28;20539;-70
2022/04/07 10:30:52;;;;;;;3.47;1.30;;;11.80;74.20;;;;;;5088279;28;20039;-70
2022/04/07 10:33:41;;;;;;;4.00;1.10;;;11.80;71.70;;;;;;5092677;28;20020;-70
2022/04/07 10:36:19;;;;;;;5.50;1.30;;;11.80;71.20;;;;;;5094644;28;20031;-70
2022/04/07 10:38:47;;;;;;;4.22;1.20;;;11.80;69.20;;;;;;5091049;28;20056;-70
2022/04/07 10:41:37;;;;;;;5.00;1.70;;;11.80;68.80;;;;;;5086279;28;20425;-70
2022/04/07 10:44:17;;;;;;;6.32;1.38;;;11.90;67.90;;;;;;5082457;28;20028;-70
2022/04/07 10:46:43;;;;;;;6.53;1.40;;;12.00;67.60;;;;;;5086237;28;20039;-70
2022/04/07 10:49:10;;;;;;;6.22;1.60;;;12.00;67.20;;;;;;5080014;28;20176;-70
2022/04/07 10:51:54;;;;;;;5.35;1.67;;;12.00;67.30;;;;;;5087017;28;20035;-70
2022/04/07 10:54:21;;;;;;;3.67;1.30;;;12.00;65.50;;;;;;5086928;28;20470;-70
2022/04/07 10:56:49;;;;;;;5.95;1.95;;;12.00;65.70;;;;;;5083959;28;20016;-70
2022/04/07 10:59:17;;;;;;;8.32;2.50;;;12.00;66.20;;;;;;5083862;28;20086;-69
2022/04/07 11:01:43;;;;;;;7.63;2.22;;;12.00;64.60;;;;;;5094882;28;20024;-69
2022/04/07 11:04:20;;;;;;;6.80;2.20;;;11.90;64.50;;;;;;5097529;28;20028;-69
2022/04/07 11:07:07;;;;;;;5.90;1.75;;;11.70;63.60;;;;;;5083042;28;20047;-70
2022/04/07 11:10:11;;;;;;;9.05;2.33;;;11.60;64.60;;;;;;5087245;28;20027;-70
2022/04/07 11:12:43;;;;;;;6.53;1.80;;;11.40;64.30;;;;;;5086843;28;20032;-70
2022/04/07 11:15:24;;;;;;;;;;;11.30;64.90;;;;;;5087358;28;20028;-69
2022/04/07 11:17:52;;;;;;;7.05;2.00;;;11.20;64.60;;;;;;5087792;28;19915;-70
2022/04/07 11:20:23;;;;;;;6.43;1.70;;;11.20;64.90;;;;;;5090619;28;20020;-70
2022/04/07 11:23:12;;;;;;;8.77;1.98;;;11.10;65.30;;;;;;5082509;28;20367;-70
2022/04/07 11:25:46;;;;;;;8.45;1.90;;;11.10;65.60;;;;;;5097629;28;20028;-69
2022/04/07 11:28:19;;;;;;;7.28;2.05;;;11.10;65.70;;;;;;5095960;28;20027;-69
2022/04/07 11:30:46;;;;;;;5.93;1.73;;;11.10;66.10;;;;;;5088976;28;20027;-69
2022/04/07 11:33:27;;;;;;;6.60;2.00;;;11.10;66.00;;;;;;5089750;28;20028;-70
2022/04/07 11:35:58;;;;;;;7.00;1.90;;;11.00;65.20;;;;;;5084955;28;20461;-70
2022/04/07 11:38:29;;;;;;;8.40;2.33;;;11.00;65.20;;;;;;5091370;28;20082;-70
2022/04/07 11:41:12;;;;;;;8.35;2.30;;;11.00;65.50;;;;;;5088096;28;20107;-70
2022/04/07 11:43:40;;;;;;;6.63;2.15;;;11.10;65.70;;;;;;5089726;28;20024;-70
2022/04/07 11:46:06;;;;;;;8.63;2.50;;;11.10;65.10;;;;;;5093707;28;20488;-70
2022/04/07 11:48:34;;;;;;;5.97;1.92;;;11.10;64.50;;;;;;5088823;28;20028;-69
2022/04/07 11:51:08;;;;;;;6.45;1.92;;;11.10;64.40;;;;;;5083376;28;20040;-70
2022/04/07 11:53:33;;;;;;;8.68;2.15;;;11.10;63.90;;;;;;5087809;28;20035;-70
2022/04/07 11:56:17;;;;;;;7.90;2.05;;;11.10;63.90;;;;;;5083808;28;20024;-69
2022/04/07 11:58:44;;;;;;;6.43;1.70;;;11.30;64.00;;;;;;5080138;28;20027;-69
2022/04/07 12:01:11;;;;;;;10.00;2.40;;;11.30;63.20;;;;;;5087480;28;20363;-70
2022/04/07 12:03:38;;;;;;;8.35;2.30;;;11.40;63.10;;;;;;5082943;28;20021;-68
2022/04/07 12:06:04;;;;;;;6.30;1.80;;;11.40;62.40;;;;;;5082534;28;20024;-69
2022/04/07 12:08:29;;;;;;;9.48;2.38;;;11.30;62.70;;;;;;5076845;28;20398;-69
2022/04/07 12:10:55;;;;;;;8.70;2.38;;;11.30;62.60;;;;;;5088240;28;20179;-69
2022/04/07 12:13:21;;;;;;;7.65;2.38;;;11.40;62.80;;;;;;5092890;28;20031;-71
2022/04/07 12:15:46;;;;;;;8.00;2.00;;;11.50;63.20;;;;;;5089771;28;20106;-70
2022/04/07 12:18:12;;;;;;;8.05;2.67;;;11.60;62.80;;;;;;5088700;28;20027;-69
2022/04/07 12:20:38;;;;;;;7.60;2.50;;;11.60;62.60;;;;;;5087906;28;20611;-69
2022/04/07 12:23:12;;;;;;;10.85;2.72;;;11.70;62.40;;;;;;5095759;28;20016;-69
2022/04/07 12:25:40;;;;;;;9.60;2.58;;;11.70;62.10;;;;;;5083252;28;20031;-69
2022/04/07 12:28:14;;;;;;;10.65;2.90;;;11.70;61.70;;;;;;5086713;28;20126;-69
2022/04/07 12:30:55;;;;;;;11.10;2.30;;;11.70;61.20;;;;;;5105271;28;20101;-69
2022/04/07 12:33:44;;;;;;;9.25;2.53;;;11.60;60.70;;;;;;5087026;27;20095;-69
2022/04/07 12:36:14;;;;;;;8.20;2.33;;;11.60;61.50;;;;;;5092972;28;20108;-69
2022/04/07 12:38:41;;;;;;;9.70;2.40;;;11.60;61.50;;;;;;5089141;28;20020;-69
2022/04/07 12:41:15;;;;;;;5.97;2.10;;;11.60;61.70;;;;;;5093935;28;20066;-69
2022/04/07 12:43:51;;;;;;;6.32;2.05;;;11.60;62.00;;;;;;5084884;28;20044;-69
2022/04/07 12:46:18;;;;;;;7.72;2.22;;;11.70;61.70;;;;;;5088630;28;20032;-69
2022/04/07 12:49:06;;;;;;;10.43;2.42;;;11.70;61.00;;;;;;5097705;28;20432;-69
2022/04/07 12:51:33;;;;;;;6.57;1.77;;;11.80;60.60;;;;;;5091358;28;20677;-69